createdAt,value
2023-03-17T00:00:47.683Z,171.90
2023-03-17T00:03:26.012Z,163.60
2023-03-17T00:05:57.593Z,155.50
2023-03-17T00:08:27.989Z,142.50
2023-03-17T00:10:55.977Z,144.40
2023-03-17T00:13:24.137Z,134.70
2023-03-17T00:16:03.604Z,129.50
2023-03-17T00:18:31.945Z,131.40
2023-03-17T00:20:58.966Z,133.70
2023-03-17T00:23:26.536Z,135.10
2023-03-17T00:25:54.501Z,137.20
2023-03-17T00:28:27.607Z,126.90
2023-03-17T00:31:01.284Z,128.80
2023-03-17T00:33:30.693Z,128.00
2023-03-17T00:35:58.992Z,127.20
2023-03-17T00:38:26.026Z,132.50
2023-03-17T00:40:52.853Z,129.20
2023-03-17T00:43:22.156Z,130.00
2023-03-17T00:45:49.653Z,138.30
2023-03-17T00:48:19.895Z,133.20
2023-03-17T00:50:50.643Z,136.70
2023-03-17T00:53:19.645Z,136.10
2023-03-17T00:55:48.056Z,138.00
2023-03-17T00:58:25.897Z,139.00
2023-03-17T01:00:53.821Z,134.00
2023-03-17T01:03:21.433Z,122.10
2023-03-17T01:05:50.207Z,114.40
2023-03-17T01:08:18.545Z,88.30
2023-03-17T01:10:45.373Z,97.30
2023-03-17T01:13:13.798Z,95.60
2023-03-17T01:15:47.587Z,102.20
2023-03-17T01:18:17.208Z,88.60
2023-03-17T01:23:12.461Z,112.10
2023-03-17T01:25:41.578Z,108.40
2023-03-17T01:28:14.642Z,110.60
2023-03-17T01:30:43.909Z,116.60
2023-03-17T01:33:14.850Z,119.80
2023-03-17T01:35:44.046Z,112.60
2023-03-17T01:38:11.785Z,112.40
2023-03-17T01:40:45.812Z,120.60
2023-03-17T01:43:12.582Z,124.70
2023-03-17T01:46:17.350Z,115.50
2023-03-17T01:49:10.058Z,108.40
2023-03-17T01:51:46.495Z,114.30
2023-03-17T01:54:35.959Z,109.30
2023-03-17T01:57:10.750Z,101.30
2023-03-17T01:59:44.523Z,106.20
2023-03-17T02:02:16.226Z,110.90
2023-03-17T02:04:43.216Z,106.70
2023-03-17T02:07:11.427Z,103.60
2023-03-17T02:09:41.565Z,112.10
2023-03-17T02:12:10.451Z,112.40
2023-03-17T02:14:37.597Z,110.30
2023-03-17T02:17:10.791Z,106.00
2023-03-17T02:19:39.033Z,109.50
2023-03-17T02:22:06.061Z,107.10
2023-03-17T02:24:48.770Z,111.20
2023-03-17T02:27:24.391Z,110.40
2023-03-17T02:29:53.767Z,106.60
2023-03-17T02:32:20.618Z,111.70
2023-03-17T02:34:48.527Z,108.60
2023-03-17T02:37:17.281Z,113.80
2023-03-17T02:39:44.501Z,102.20
2023-03-17T02:42:12.796Z,109.70
2023-03-17T02:44:40.629Z,119.60
2023-03-17T02:47:08.708Z,105.60
2023-03-17T02:49:37.343Z,103.20
2023-03-17T02:52:05.220Z,101.00
2023-03-17T02:54:32.303Z,100.60
2023-03-17T02:56:59.822Z,100.60
2023-03-17T02:59:27.128Z,95.10
2023-03-17T03:01:53.998Z,89.60
2023-03-17T03:04:20.892Z,100.90
2023-03-17T03:06:48.123Z,92.70
2023-03-17T03:09:15.534Z,97.20
2023-03-17T03:11:43.038Z,94.50
2023-03-17T03:14:10.615Z,96.40
2023-03-17T03:16:38.557Z,98.70
2023-03-17T03:19:07.108Z,106.40
2023-03-17T03:21:34.150Z,108.80
2023-03-17T03:24:01.321Z,108.50
2023-03-17T03:26:28.489Z,106.10
2023-03-17T03:28:57.421Z,113.60
2023-03-17T03:31:25.073Z,102.60
2023-03-17T03:33:51.935Z,100.90
2023-03-17T03:36:19.037Z,110.60
2023-03-17T03:38:45.922Z,107.30
2023-03-17T03:41:13.225Z,105.50
2023-03-17T03:43:40.198Z,104.40
2023-03-17T03:46:07.611Z,112.40
2023-03-17T03:48:34.463Z,103.30
2023-03-17T03:51:02.507Z,100.80
2023-03-17T03:53:30.129Z,106.00
2023-03-17T03:55:57.067Z,111.00
2023-03-17T03:58:23.859Z,100.10
2023-03-17T04:00:51.261Z,93.00
2023-03-17T04:03:18.150Z,110.60
2023-03-17T04:05:45.050Z,96.40
2023-03-17T04:08:12.013Z,108.60
2023-03-17T04:10:38.889Z,109.00
2023-03-17T04:13:05.768Z,101.40
2023-03-17T04:15:33.141Z,113.00
2023-03-17T04:17:59.954Z,97.50
2023-03-17T04:20:26.831Z,97.00
2023-03-17T04:22:53.713Z,97.50
2023-03-17T04:25:20.660Z,102.60
2023-03-17T04:27:47.524Z,99.40
2023-03-17T04:30:16.782Z,98.40
2023-03-17T04:32:44.883Z,100.00
2023-03-17T04:35:17.799Z,97.60
2023-03-17T04:37:44.768Z,95.90
2023-03-17T04:40:13.531Z,95.50
2023-03-17T04:42:40.719Z,98.00
2023-03-17T04:45:15.584Z,98.80
2023-03-17T04:47:42.477Z,101.00
2023-03-17T04:50:12.053Z,107.10
2023-03-17T04:52:39.048Z,104.70
2023-03-17T04:55:08.456Z,108.90
2023-03-17T04:57:36.860Z,117.10
2023-03-17T05:00:06.119Z,100.50
2023-03-17T05:02:33.093Z,94.20
2023-03-17T05:05:00.012Z,92.00
2023-03-17T05:07:26.853Z,96.50
2023-03-17T05:09:53.710Z,95.70
2023-03-17T05:12:20.686Z,101.20
2023-03-17T05:14:47.512Z,96.90
2023-03-17T05:17:14.688Z,92.70
2023-03-17T05:19:41.490Z,98.40
2023-03-17T05:22:08.427Z,94.80
2023-03-17T05:24:35.259Z,119.40
2023-03-17T05:27:02.057Z,128.00
2023-03-17T05:29:29.004Z,117.70
2023-03-17T05:31:55.891Z,117.50
2023-03-17T05:34:22.944Z,112.10
2023-03-17T05:36:50.602Z,101.50
2023-03-17T05:39:17.685Z,98.90
2023-03-17T05:41:44.570Z,102.70
2023-03-17T05:44:11.468Z,104.40
2023-03-17T05:46:38.287Z,107.50
2023-03-17T05:49:05.205Z,101.60
2023-03-17T05:51:32.166Z,97.70
2023-03-17T05:53:59.020Z,96.70
2023-03-17T05:56:33.445Z,89.80
2023-03-17T05:59:01.915Z,87.20
2023-03-17T06:01:29.710Z,85.90
2023-03-17T06:03:56.769Z,89.20
2023-03-17T06:06:24.764Z,106.80
2023-03-17T06:08:51.852Z,99.30
2023-03-17T06:11:21.276Z,86.00
2023-03-17T06:13:48.551Z,87.30
2023-03-17T06:16:15.871Z,84.20
2023-03-17T06:18:42.920Z,78.00
2023-03-17T06:21:09.780Z,73.40
2023-03-17T06:23:36.731Z,71.70
2023-03-17T06:26:05.286Z,66.40
2023-03-17T06:28:32.350Z,67.70
2023-03-17T06:30:59.356Z,67.70
2023-03-17T06:33:26.345Z,69.00
2023-03-17T06:35:53.510Z,65.60
2023-03-17T06:38:20.970Z,54.60
2023-03-17T06:40:48.935Z,60.90
2023-03-17T06:43:15.832Z,48.40
2023-03-17T06:45:42.735Z,52.10
2023-03-17T06:48:09.608Z,49.80
2023-03-17T06:54:02.332Z,53.00
2023-03-17T06:56:30.509Z,43.10
2023-03-17T06:58:58.452Z,47.50
2023-03-17T07:01:27.570Z,44.60
2023-03-17T07:03:54.798Z,41.30
2023-03-17T07:06:23.510Z,43.20
2023-03-17T07:08:51.106Z,44.40
2023-03-17T07:11:17.997Z,39.50
2023-03-17T07:13:45.403Z,39.60
2023-03-17T07:16:14.067Z,37.40
2023-03-17T07:18:40.962Z,33.10
2023-03-17T07:21:08.164Z,36.80
2023-03-17T07:23:35.303Z,33.40
2023-03-17T07:26:02.690Z,41.00
2023-03-17T07:28:29.752Z,37.70
2023-03-17T07:30:58.205Z,39.70
2023-03-17T07:33:25.422Z,32.00
2023-03-17T07:35:54.358Z,37.80
2023-03-17T07:38:22.091Z,37.60
2023-03-17T07:40:49.408Z,36.00
2023-03-17T07:43:17.060Z,37.20
2023-03-17T07:45:44.966Z,36.20
2023-03-17T07:48:11.881Z,32.60
2023-03-17T07:50:39.056Z,30.50
2023-03-17T07:53:06.366Z,32.00
2023-03-17T07:57:32.886Z,30.40
2023-03-17T07:59:59.969Z,24.60
2023-03-17T08:02:27.142Z,30.20
2023-03-17T08:04:54.137Z,24.00
2023-03-17T08:07:21.031Z,22.60
2023-03-17T08:09:48.383Z,22.00
2023-03-17T08:12:15.384Z,31.40
2023-03-17T08:14:42.457Z,22.50
2023-03-17T08:17:09.496Z,17.40
2023-03-17T08:19:36.558Z,24.50
2023-03-17T08:22:03.513Z,22.50
2023-03-17T08:24:30.433Z,25.70
2023-03-17T08:26:59.752Z,26.40
2023-03-17T08:29:29.252Z,18.10
2023-03-17T08:31:57.474Z,16.80
2023-03-17T08:34:24.511Z,38.00
2023-03-17T08:36:51.849Z,19.50
2023-03-17T08:39:19.673Z,20.00
2023-03-17T08:41:47.146Z,16.40
2023-03-17T08:44:14.906Z,19.60
2023-03-17T08:46:42.012Z,17.10
2023-03-17T08:49:10.650Z,14.60
2023-03-17T08:51:38.827Z,19.00
2023-03-17T08:54:07.017Z,14.90
2023-03-17T08:56:34.468Z,22.00
2023-03-17T08:59:01.396Z,21.10
2023-03-17T09:01:28.403Z,13.70
2023-03-17T09:03:56.165Z,19.80
2023-03-17T09:06:23.713Z,25.40
2023-03-17T09:08:55.666Z,14.30
2023-03-17T09:11:29.444Z,18.00
2023-03-17T09:13:56.629Z,12.20
2023-03-17T09:16:24.913Z,9.40
2023-03-17T09:18:52.142Z,9.80
2023-03-17T09:21:19.499Z,10.30
2023-03-17T09:23:47.103Z,9.10
2023-03-17T09:26:14.064Z,12.00
2023-03-17T09:28:40.975Z,27.10
2023-03-17T09:31:11.771Z,8.10
2023-03-17T09:33:39.924Z,8.80
2023-03-17T09:36:08.132Z,6.60
2023-03-17T09:38:36.244Z,8.00
2023-03-17T09:41:23.977Z,6.10
2023-03-17T09:44:18.137Z,6.50
2023-03-17T09:46:48.038Z,7.30
2023-03-17T09:49:25.329Z,7.60
2023-03-17T09:51:53.493Z,6.70
2023-03-17T09:54:23.084Z,5.90
2023-03-17T09:57:01.890Z,7.50
2023-03-17T09:59:40.698Z,8.70
2023-03-17T10:02:17.527Z,6.60
2023-03-17T10:04:47.174Z,13.90
2023-03-17T10:07:20.562Z,13.30
2023-03-17T10:10:01.041Z,5.40
2023-03-17T10:12:54.017Z,6.30
2023-03-17T10:15:28.049Z,6.10
2023-03-17T10:17:55.008Z,6.90
2023-03-17T10:20:36.561Z,7.80
2023-03-17T10:23:07.312Z,8.00
2023-03-17T10:25:36.605Z,7.60
2023-03-17T10:28:12.468Z,35.50
2023-03-17T10:30:40.052Z,7.10
2023-03-17T10:33:07.327Z,9.50
2023-03-17T10:35:36.746Z,8.10
2023-03-17T10:38:20.049Z,6.30
2023-03-17T10:41:09.987Z,8.20
2023-03-17T10:43:50.787Z,7.20
2023-03-17T10:46:25.962Z,8.70
2023-03-17T10:49:17.032Z,8.20
2023-03-17T10:51:46.772Z,7.20
2023-03-17T10:56:49.135Z,8.70
2023-03-17T10:59:44.333Z,7.90
2023-03-17T11:02:24.384Z,7.00
2023-03-17T11:04:55.886Z,7.30
2023-03-17T11:07:38.325Z,7.70
2023-03-17T11:10:24.826Z,6.80
2023-03-17T11:13:00.691Z,8.90
2023-03-17T11:15:37.252Z,6.90
2023-03-17T11:18:14.078Z,8.30
2023-03-17T11:20:47.064Z,8.00
2023-03-17T11:23:48.401Z,8.40
2023-03-17T11:26:46.630Z,8.10
2023-03-17T11:29:24.634Z,8.30
2023-03-17T11:32:12.151Z,9.90
2023-03-17T11:35:27.457Z,7.70
2023-03-17T11:38:24.861Z,7.00
2023-03-17T11:41:09.177Z,7.30
2023-03-17T11:43:59.695Z,8.00
2023-03-17T11:47:03.282Z,7.70
2023-03-17T11:49:38.993Z,8.80
2023-03-17T11:52:11.441Z,7.40
2023-03-17T11:54:47.594Z,7.30
2023-03-17T11:57:24.066Z,7.80
2023-03-17T12:00:04.214Z,7.10
2023-03-17T12:02:45.761Z,7.10
2023-03-17T12:05:38.602Z,8.30
2023-03-17T12:08:14.255Z,10.90
2023-03-17T12:10:49.643Z,8.80
2023-03-17T12:13:19.590Z,11.10
2023-03-17T12:18:52.944Z,9.10
2023-03-17T12:21:33.037Z,11.40
2023-03-17T12:24:05.968Z,9.60
2023-03-17T12:26:32.831Z,10.60
2023-03-17T12:29:07.135Z,13.50
2023-03-17T12:31:58.801Z,11.50
2023-03-17T12:34:42.075Z,11.00
2023-03-17T12:37:09.945Z,11.70
2023-03-17T12:39:38.097Z,7.70
2023-03-17T12:42:21.976Z,13.40
2023-03-17T12:45:27.745Z,8.10
2023-03-17T12:48:23.926Z,10.70
2023-03-17T12:50:50.888Z,9.50
2023-03-17T12:53:53.207Z,11.90
2023-03-17T12:56:32.316Z,12.00
2023-03-17T12:59:06.354Z,11.10
2023-03-17T13:01:39.066Z,14.00
2023-03-17T13:04:08.774Z,11.80
2023-03-17T13:07:14.677Z,12.80
2023-03-17T13:09:45.302Z,11.30
2023-03-17T13:12:37.140Z,11.80
2023-03-17T13:15:47.227Z,11.60
2023-03-17T13:18:14.088Z,12.30
2023-03-17T13:20:51.736Z,13.00
2023-03-17T13:23:23.900Z,10.40
2023-03-17T13:25:53.905Z,10.70
2023-03-17T13:28:42.052Z,10.60
2023-03-17T13:31:27.268Z,10.90
2023-03-17T13:33:57.775Z,8.60
2023-03-17T13:36:40.094Z,19.00
2023-03-17T13:39:29.656Z,24.40
2023-03-17T13:42:18.817Z,12.70
2023-03-17T13:45:09.526Z,91.30
2023-03-17T13:47:44.512Z,34.90
2023-03-17T13:50:31.197Z,48.40
2023-03-17T13:53:03.810Z,10.40
2023-03-17T13:55:37.273Z,16.00
2023-03-17T13:58:11.832Z,12.30
2023-03-17T14:00:42.571Z,13.20
2023-03-17T14:03:20.692Z,27.00
2023-03-17T14:05:50.935Z,13.90
2023-03-17T14:08:35.832Z,13.80
2023-03-17T14:11:09.022Z,56.50
2023-03-17T14:13:53.082Z,17.00
2023-03-17T14:16:30.419Z,17.00
2023-03-17T14:19:12.246Z,19.90
2023-03-17T14:21:39.109Z,18.40
2023-03-17T14:24:21.542Z,24.50
2023-03-17T14:26:50.631Z,110.20
2023-03-17T14:29:21.444Z,19.00
2023-03-17T14:32:02.545Z,31.00
2023-03-17T14:34:30.091Z,37.90
2023-03-17T14:37:04.851Z,29.20
2023-03-17T14:39:32.359Z,17.00
2023-03-17T14:42:05.252Z,20.80
2023-03-17T14:44:44.112Z,15.40
2023-03-17T14:47:32.717Z,22.20
2023-03-17T14:50:02.862Z,20.70
2023-03-17T14:52:33.102Z,46.30
2023-03-17T14:55:01.157Z,19.80
2023-03-17T14:57:33.163Z,19.60
2023-03-17T15:00:34.343Z,43.70
2023-03-17T15:03:05.531Z,18.50
2023-03-17T15:05:40.917Z,28.70
2023-03-17T15:08:36.538Z,21.10
2023-03-17T15:11:06.004Z,20.90
2023-03-17T15:13:36.716Z,27.60
2023-03-17T15:16:33.851Z,17.00
2023-03-17T15:19:17.369Z,17.30
2023-03-17T15:21:44.592Z,25.30
2023-03-17T15:24:52.105Z,25.30
2023-03-17T15:27:19.249Z,22.70
2023-03-17T15:29:47.562Z,21.00
2023-03-17T15:32:20.472Z,21.60
2023-03-17T15:34:48.868Z,24.80
2023-03-17T15:37:23.134Z,25.60
2023-03-17T15:39:51.581Z,26.00
2023-03-17T15:42:20.448Z,19.10
2023-03-17T15:44:47.595Z,26.20
2023-03-17T15:47:16.947Z,19.80
2023-03-17T15:49:45.052Z,26.60
2023-03-17T15:52:21.999Z,19.50
2023-03-17T15:54:49.748Z,19.10
2023-03-17T15:57:17.397Z,20.70
2023-03-17T15:59:45.168Z,26.90
2023-03-17T16:02:25.224Z,26.00
2023-03-17T16:04:52.670Z,28.20
2023-03-17T16:07:21.453Z,19.90
2023-03-17T16:09:49.031Z,22.90
2023-03-17T16:12:16.244Z,26.80
2023-03-17T16:14:43.225Z,16.60
2023-03-17T16:17:20.249Z,21.10
2023-03-17T16:19:48.171Z,20.30
2023-03-17T16:22:43.178Z,23.10
2023-03-17T16:25:30.979Z,23.60
2023-03-17T16:28:00.446Z,23.90
2023-03-17T16:30:33.107Z,21.70
2023-03-17T16:33:16.065Z,20.50
2023-03-17T16:35:43.752Z,20.60
2023-03-17T16:38:17.826Z,26.80
2023-03-17T16:40:52.010Z,43.90
2023-03-17T16:43:25.592Z,76.10
2023-03-17T16:45:55.719Z,34.90
2023-03-17T16:50:50.561Z,25.20
2023-03-17T16:53:17.848Z,25.20
2023-03-17T16:55:46.091Z,24.10
2023-03-17T16:58:31.590Z,27.90
2023-03-17T17:01:06.529Z,21.40
2023-03-17T17:03:33.708Z,18.60
2023-03-17T17:06:00.614Z,20.30
2023-03-17T17:08:27.636Z,19.70
2023-03-17T17:10:54.586Z,25.50
2023-03-17T17:13:21.671Z,30.50
2023-03-17T17:15:49.055Z,30.60
2023-03-17T17:18:20.752Z,35.00
2023-03-17T17:20:49.327Z,33.30
2023-03-17T17:23:22.214Z,35.40
2023-03-17T17:25:50.478Z,35.20
2023-03-17T17:28:19.545Z,33.70
2023-03-17T17:30:48.244Z,30.30
2023-03-17T17:33:17.125Z,33.20
2023-03-17T17:35:45.223Z,37.30
2023-03-17T17:38:26.844Z,41.10
2023-03-17T17:40:56.107Z,41.30
2023-03-17T17:43:24.806Z,43.10
2023-03-17T17:45:52.158Z,40.10
2023-03-17T17:48:22.831Z,51.80
2023-03-17T17:50:51.288Z,62.70
2023-03-17T17:53:18.780Z,73.00
2023-03-17T17:55:48.409Z,83.30
2023-03-17T17:58:18.111Z,82.30
2023-03-17T18:00:45.502Z,75.00
2023-03-17T18:03:12.645Z,58.50
2023-03-17T18:05:40.063Z,84.00
2023-03-17T18:08:07.080Z,105.10
2023-03-17T18:10:34.739Z,144.60
2023-03-17T18:13:04.521Z,271.80
2023-03-17T18:15:31.921Z,315.20
2023-03-17T18:17:58.935Z,177.90
2023-03-17T18:20:26.486Z,253.50
2023-03-17T18:22:54.375Z,275.30
2023-03-17T18:25:21.461Z,124.70
2023-03-17T18:27:48.744Z,116.80
2023-03-17T18:30:25.326Z,57.30
2023-03-17T18:33:02.657Z,51.40
2023-03-17T18:35:29.793Z,50.70
2023-03-17T18:37:59.532Z,44.20
2023-03-17T18:40:26.647Z,44.30
2023-03-17T18:42:54.119Z,52.40
2023-03-17T18:45:21.652Z,76.60
2023-03-17T18:47:48.617Z,87.10
2023-03-17T18:50:16.650Z,74.50
2023-03-17T18:52:45.381Z,93.40
2023-03-17T18:55:13.882Z,56.90
2023-03-17T18:57:44.321Z,37.50
2023-03-17T19:00:14.628Z,41.20
2023-03-17T19:05:10.748Z,35.70
2023-03-17T19:07:40.201Z,28.10
2023-03-17T19:10:08.842Z,29.10
2023-03-17T19:12:36.566Z,26.30
2023-03-17T19:15:04.514Z,33.60
2023-03-17T19:17:31.740Z,31.70
2023-03-17T19:19:58.983Z,31.70
2023-03-17T19:22:26.292Z,31.90
2023-03-17T19:24:53.656Z,30.70
2023-03-17T19:27:20.861Z,31.90
2023-03-17T19:29:47.854Z,30.20
2023-03-17T19:32:16.295Z,28.40
2023-03-17T19:34:43.286Z,22.10
2023-03-17T19:37:10.293Z,23.50
2023-03-17T19:39:38.135Z,24.70
2023-03-17T19:42:05.345Z,21.70
2023-03-17T19:44:32.509Z,26.90
2023-03-17T19:47:01.818Z,23.20
2023-03-17T19:49:28.873Z,24.70
2023-03-17T19:51:56.718Z,23.60
2023-03-17T19:54:23.696Z,21.40
2023-03-17T19:56:50.786Z,20.60
2023-03-17T19:59:19.821Z,21.60
2023-03-17T20:01:49.339Z,20.60
2023-03-17T20:04:22.052Z,22.40
2023-03-17T20:06:55.397Z,22.50
2023-03-17T20:09:24.977Z,21.30
2023-03-17T20:11:53.587Z,23.00
2023-03-17T20:14:21.102Z,19.20
2023-03-17T20:16:48.803Z,19.30
2023-03-17T20:19:16.947Z,25.50
2023-03-17T20:21:44.253Z,18.70
2023-03-17T20:24:12.927Z,17.30
2023-03-17T20:26:41.561Z,19.70
2023-03-17T20:29:08.635Z,18.20
2023-03-17T20:31:36.167Z,17.60
2023-03-17T20:34:03.547Z,19.30
2023-03-17T20:36:30.525Z,17.90
2023-03-17T20:38:58.741Z,20.50
2023-03-17T20:41:25.960Z,23.30
2023-03-17T20:43:53.462Z,28.50
2023-03-17T20:46:26.716Z,17.50
2023-03-17T20:48:59.057Z,19.60
2023-03-17T20:51:26.797Z,20.30
2023-03-17T20:53:55.353Z,24.20
2023-03-17T20:56:24.498Z,18.00
2023-03-17T20:58:53.425Z,18.00
2023-03-17T21:01:21.622Z,22.20
2023-03-17T21:03:49.858Z,19.60
2023-03-17T21:06:17.894Z,18.80
2023-03-17T21:08:46.273Z,18.60
2023-03-17T21:11:21.102Z,19.80
2023-03-17T21:13:48.037Z,16.10
2023-03-17T21:16:21.446Z,19.20
2023-03-17T21:18:48.986Z,21.10
2023-03-17T21:21:16.864Z,20.10
2023-03-17T21:23:44.294Z,21.60
2023-03-17T21:26:12.413Z,20.70
2023-03-17T21:28:41.526Z,20.80
2023-03-17T21:31:10.661Z,25.10
2023-03-17T21:33:38.246Z,25.30
2023-03-17T21:36:06.075Z,20.30
2023-03-17T21:38:33.188Z,21.20
2023-03-17T21:41:22.491Z,20.50
2023-03-17T21:43:49.538Z,19.40
2023-03-17T21:46:16.751Z,18.20
2023-03-17T21:48:44.227Z,17.40
2023-03-17T21:51:11.674Z,20.70
2023-03-17T21:53:39.412Z,17.20
2023-03-17T21:56:06.765Z,19.60
2023-03-17T21:58:35.311Z,21.00
2023-03-17T22:01:03.385Z,18.20
2023-03-17T22:03:32.371Z,22.60
2023-03-17T22:05:59.887Z,18.50
2023-03-17T22:08:26.958Z,18.80
2023-03-17T22:10:54.084Z,15.30
2023-03-17T22:13:21.226Z,16.90
2023-03-17T22:15:48.854Z,19.20
2023-03-17T22:18:16.091Z,19.60
2023-03-17T22:20:45.054Z,16.50
2023-03-17T22:23:12.086Z,18.80
2023-03-17T22:25:39.102Z,14.50
2023-03-17T22:28:06.641Z,16.50
2023-03-17T22:30:33.955Z,13.50
2023-03-17T22:33:01.245Z,17.30
2023-03-17T22:35:28.576Z,16.00
2023-03-17T22:37:55.470Z,14.90
2023-03-17T22:40:22.722Z,15.90
2023-03-17T22:42:49.626Z,18.40
2023-03-17T22:45:16.712Z,13.80
2023-03-17T22:47:43.799Z,21.20
2023-03-17T22:50:11.941Z,17.80
2023-03-17T22:52:38.859Z,18.40
2023-03-17T22:55:07.872Z,22.10
2023-03-17T22:57:35.271Z,19.70
2023-03-17T23:00:05.649Z,18.10
2023-03-17T23:02:32.625Z,15.90
2023-03-17T23:04:59.489Z,21.30
2023-03-17T23:07:27.696Z,15.70
2023-03-17T23:09:55.223Z,16.40
2023-03-17T23:12:24.633Z,17.80
2023-03-17T23:14:51.678Z,17.20
2023-03-17T23:17:18.886Z,11.70
2023-03-17T23:19:46.449Z,12.60
2023-03-17T23:22:13.279Z,16.20
2023-03-17T23:24:40.279Z,19.30
2023-03-17T23:27:07.194Z,20.20
2023-03-17T23:29:34.153Z,15.90
2023-03-17T23:32:01.398Z,10.90
2023-03-17T23:34:28.599Z,14.60
2023-03-17T23:36:55.570Z,14.40
2023-03-17T23:39:22.395Z,16.70
2023-03-17T23:41:49.603Z,16.30
2023-03-17T23:44:16.642Z,15.50
2023-03-17T23:46:45.284Z,14.50
2023-03-17T23:49:12.371Z,12.60
2023-03-17T23:51:39.320Z,14.00
2023-03-17T23:54:07.796Z,13.80
2023-03-17T23:56:35.032Z,13.30
2023-03-17T23:59:04.003Z,12.60
